ADDS METAR Data INFO
IDs: Format: Raw Decoded Include TAF

Data at: 1805 UTC 18 Feb 2018

KBOW 181747Z VRB05KT 10SM FEW050 27/12 A3022
KBOW 181717Z 11005KT 10SM FEW040 27/12 A3024
KBOW 181702Z 28005KT 10SM FEW040 27/13 A3024
KBOW 181645Z 22005KT 10SM SKC 27/13 A3025
KBOW 181545Z 20007KT 10SM SKC 25/14 A3026
KBOW 181447Z 16006KT 10SM SKC 23/14 A3026
KBOW 181345Z 16005KT 10SM SKC 17/17 A3024
KBOW 181246Z 00000KT 7SM SKC 13/13 A3024
KBOW 181230Z 00000KT 7SM MIFG SKC 14/14 A3023
KBOW 181215Z AUTO 00000KT 10SM CLR 13/13 A3023 RMK AO2
KBOW 181155Z AUTO 00000KT 10SM CLR 12/12 A3022 RMK AO2
KBOW 181135Z AUTO 00000KT 10SM CLR 12/12 A3021 RMK AO2
KBOW 181115Z AUTO 00000KT 10SM CLR 14/14 A3021 RMK AO2
KBOW 181055Z AUTO 00000KT 9SM CLR 14/ A3020 RMK AO2
KBOW 181035Z AUTO 00000KT 8SM CLR 14/ A3020 RMK AO2
KBOW 181015Z AUTO 00000KT 9SM CLR 13/ A3020 RMK AO2
KBOW 180955Z AUTO 13003KT 9SM CLR 13/ A3019 RMK AO2
KBOW 180935Z AUTO 12004KT 9SM CLR 12/12 A3020 RMK AO2
KBOW 180915Z AUTO 10004KT 7SM CLR 12/12 A3020 RMK AO2
KBOW 180855Z AUTO 00000KT 9SM CLR 12/13 A3020 RMK AO2
KBOW 180835Z AUTO 00000KT 10SM CLR 14/14 A3020 RMK AO2
KBOW 180815Z AUTO 00000KT 9SM CLR 13/13 A3020 RMK AO2
KBOW 180755Z AUTO 00000KT 10SM CLR 13/13 A3020 RMK AO2
KBOW 180735Z AUTO 00000KT 10SM CLR 13/13 A3020 RMK AO2
KBOW 180715Z AUTO 00000KT 10SM CLR 14/14 A3020 RMK AO2
KBOW 180655Z AUTO 12003KT 10SM CLR 13/13 A3020 RMK AO2
KBOW 180635Z AUTO 00000KT 10SM CLR 14/14 A3020 RMK AO2
KBOW 180615Z AUTO 00000KT 10SM CLR 15/15 A3020 RMK AO2
KBOW 180555Z AUTO 00000KT 10SM CLR 14/14 A3021 RMK AO2
KBOW 180535Z AUTO 00000KT 10SM CLR 16/15 A3021 RMK AO2
KBOW 180515Z AUTO 00000KT 10SM CLR 18/15 A3021 RMK AO2
KBOW 180455Z AUTO 33003KT 10SM CLR 18/15 A3022 RMK AO2
KBOW 180435Z AUTO 00000KT 10SM CLR 18/15 A3022 RMK AO2
KBOW 180415Z AUTO 00000KT 10SM CLR 18/14 A3022 RMK AO2
KBOW 180355Z AUTO 33004KT 10SM CLR 19/14 A3022 RMK AO2
KBOW 180335Z AUTO 32004KT 10SM CLR 19/13 A3023 RMK AO2
KBOW 180315Z AUTO 00000KT 10SM CLR 20/13 A3024 RMK AO2
KBOW 180255Z AUTO 32003KT 10SM CLR 20/14 A3023 RMK AO2
KBOW 180235Z AUTO 31005KT 10SM CLR 21/14 A3023 RMK AO2
KBOW 180215Z AUTO 27004KT 10SM CLR 21/14 A3023 RMK AO2
KBOW 180155Z AUTO 29004KT 10SM CLR 21/14 A3022 RMK AO2
KBOW 180135Z AUTO 27004KT 10SM CLR 21/14 A3022 RMK AO2
KBOW 180115Z AUTO 26006KT 10SM CLR 21/14 A3023 RMK AO2
KBOW 180055Z AUTO 26006KT 10SM CLR 21/14 A3022 RMK AO2
KBOW 180035Z AUTO 26007KT 10SM CLR 22/13 A3022 RMK AO2
KBOW 180015Z AUTO 26007KT 10SM FEW050 22/13 A3021 RMK AO2
KBOW 172355Z AUTO 26008KT 10SM FEW049 23/13 A3021 RMK AO2
KBOW 172335Z AUTO 26010KT 10SM SCT060 24/13 A3021 RMK AO2
KBOW 172315Z AUTO 26007KT 10SM BKN060 BKN070 25/13 A3020 RMK AO2
KBOW 172255Z AUTO 28009KT 10SM FEW065 25/13 A3020 RMK AO2
KBOW 172235Z AUTO 29010G18KT 10SM SCT060 SCT070 26/13 A3019 RMK AO2
KBOW 172159Z 28006KT 10SM SCT060 27/14 A3018
KBOW 172052Z 23011KT 10SM SKC 27/13 A3015
KBOW 171955Z 24013KT 10SM SKC 27/13 A3015
KBOW 171855Z 21009KT 10SM SKC 27/13 A3016
KBOW 171755Z 24007KT 10SM SKC 26/15 A3019
KBOW 171655Z 22004G11KT 10SM SKC 24/15 A3022
KBOW 171550Z 18004KT 10SM SKC 20/19 A3024
KBOW 171518Z 00000KT 6SM SCT005 18/18 A3024
KBOW 171450Z 00000KT 1/4SM FG OVC004 17/17 A3024
KBOW 171359Z 18004KT 1/4SM FG OVC004 16/16 A3024
KBOW 171250Z 18004KT 1/4SM FG OVC004 15/15 A3022
KBOW 171230Z 00000KT 1/4SM FG OVC004 15/15 A3021
KBOW 171215Z AUTO 00000KT M1/4SM FG OVC004 14/ A3020 RMK AO2
KBOW 171155Z AUTO 00000KT M1/4SM FG OVC004 14/ A3019 RMK AO2
KBOW 171135Z AUTO 00000KT M1/4SM -UP OVC003 15/ A3019 RMK AO2
KBOW 171115Z AUTO 00000KT M1/4SM FG OVC003 15/ A3018 RMK AO2
KBOW 171055Z AUTO 00000KT M1/4SM FG OVC004 15/ A3018 RMK AO2
KBOW 171035Z AUTO 00000KT M1/4SM FG OVC004 15/ A3018 RMK AO2
KBOW 171015Z AUTO 00000KT M1/4SM FG OVC004 14/ A3017 RMK AO2
KBOW 170955Z AUTO 00000KT M1/4SM FG OVC004 14/ A3017 RMK AO2
KBOW 170935Z AUTO 00000KT 1/4SM FG OVC004 15/ A3016 RMK AO2
KBOW 170915Z AUTO 00000KT 1/4SM FG OVC004 14/ A3017 RMK AO2
KBOW 170855Z AUTO 00000KT 1/4SM FG OVC003 14/ A3017 RMK AO2
KBOW 170835Z AUTO 00000KT M1/4SM FG OVC003 14/ A3017 RMK AO2
KBOW 170815Z AUTO 00000KT M1/4SM FG BKN003 13/ A3017 RMK AO2
KBOW 170755Z AUTO 00000KT 3/4SM BR VV005 14/ A3017 RMK AO2
KBOW 170735Z AUTO 00000KT M1/4SM FG VV000 14/ A3017 RMK AO2
KBOW 170715Z AUTO 00000KT M1/4SM FG VV000 14/ A3017 RMK AO2 VIS M1/4V5
KBOW 170655Z AUTO 00000KT 9SM CLR 15/ A3018 RMK AO2
KBOW 170635Z AUTO 00000KT 9SM CLR 16/ A3019 RMK AO2
KBOW 170615Z AUTO 00000KT 4SM HZ CLR 16/ A3018 RMK AO2